Time;durP1;ratioP1;P1;durP2;ratioP2;P2;SDS_P1;SDS_P2;PMS_P1;PMS_P2;Temp;Humidity;BMP_temperature;BMP_pressure;BME280_temperature;BME280_humidity;BME280_pressure;Samples;Min_cycle;Max_cycle;Signal;HPM_P1;HPM_P2
2022/12/22 03:25:55;;;;;;;1.33;0.70;;;19.20;57.40;;;;;;5052774;28;20045;-63
2022/12/22 03:28:22;;;;;;;1.10;0.57;;;19.20;57.30;;;;;;5047555;28;20657;-63
2022/12/22 03:30:56;;;;;;;1.08;0.60;;;19.20;57.40;;;;;;5052666;28;20079;-63
2022/12/22 03:33:21;;;;;;;0.82;0.50;;;19.20;57.40;;;;;;5052109;28;20068;-63
2022/12/22 03:35:47;;;;;;;1.52;0.77;;;19.20;57.40;;;;;;5052284;28;20084;-63
2022/12/22 03:38:13;;;;;;;1.15;0.60;;;19.20;57.40;;;;;;5052457;28;20036;-63
2022/12/22 03:40:38;;;;;;;1.23;0.63;;;19.20;57.40;;;;;;5052642;28;20045;-63
2022/12/22 03:48:37;;;;;;;0.57;0.40;;;19.20;58.10;;;;;;5052124;28;20041;-63
2022/12/22 03:51:03;;;;;;;1.60;0.70;;;19.20;57.30;;;;;;5050459;28;20398;-63
2022/12/22 03:53:28;;;;;;;1.40;0.50;;;19.30;57.40;;;;;;5050850;28;20040;-63
2022/12/22 03:55:54;;;;;;;1.60;0.60;;;19.30;57.40;;;;;;5052786;28;20553;-63
2022/12/22 03:58:19;;;;;;;1.52;0.68;;;19.30;57.40;;;;;;5051710;28;20064;-63
2022/12/22 04:00:45;;;;;;;1.15;0.60;;;19.30;57.30;;;;;;5051142;28;20107;-63
2022/12/22 04:03:11;;;;;;;1.48;0.57;;;19.30;57.40;;;;;;5052111;28;20045;-64
2022/12/22 04:05:36;;;;;;;1.20;0.57;;;19.30;57.40;;;;;;5051638;28;20037;-63
2022/12/22 04:08:02;;;;;;;0.88;0.52;;;19.30;57.40;;;;;;5052389;28;20037;-64
2022/12/22 04:13:11;;;;;;;1.35;0.55;;;19.40;57.30;;;;;;5051869;28;20045;-63
2022/12/22 04:15:37;;;;;;;2.28;0.60;;;19.40;57.40;;;;;;5050990;28;20052;-63
2022/12/22 04:18:03;;;;;;;1.40;0.63;;;19.40;57.30;;;;;;5051650;28;20803;-64
2022/12/22 04:20:28;;;;;;;0.77;0.50;;;19.40;57.30;;;;;;5052199;28;20041;-63
2022/12/22 04:22:54;;;;;;;0.70;0.50;;;19.40;57.30;;;;;;5052086;28;20120;-63
2022/12/22 04:25:20;;;;;;;2.35;0.70;;;19.40;57.20;;;;;;5051331;28;20392;-63
2022/12/22 04:27:45;;;;;;;1.02;0.60;;;19.40;57.30;;;;;;5052387;28;20052;-63
2022/12/22 04:30:11;;;;;;;1.25;0.60;;;19.40;57.20;;;;;;5051461;28;20090;-63
2022/12/22 04:32:37;;;;;;;1.08;0.50;;;19.50;57.30;;;;;;5051300;28;20041;-63
2022/12/22 04:35:03;;;;;;;1.15;0.52;;;19.50;57.30;;;;;;5051681;28;20045;-63
2022/12/22 04:37:29;;;;;;;0.80;0.50;;;19.50;57.20;;;;;;5050463;28;20128;-63
2022/12/22 04:39:54;;;;;;;0.68;0.47;;;19.50;57.30;;;;;;5051749;28;20176;-63
2022/12/22 04:42:20;;;;;;;0.98;0.52;;;19.50;57.20;;;;;;5051665;28;20107;-63
2022/12/22 04:44:45;;;;;;;0.93;0.60;;;19.50;57.20;;;;;;5051603;28;20047;-63
2022/12/22 04:47:11;;;;;;;0.82;0.45;;;19.60;57.20;;;;;;5051218;28;20049;-63
2022/12/22 04:49:37;;;;;;;0.98;0.50;;;19.60;57.20;;;;;;5051597;28;20056;-63
2022/12/22 04:52:02;;;;;;;0.98;0.52;;;19.60;57.20;;;;;;5052053;28;20052;-63
2022/12/22 04:54:28;;;;;;;0.93;0.55;;;19.60;57.20;;;;;;5049965;28;20540;-62
2022/12/22 04:56:53;;;;;;;0.82;0.52;;;19.60;57.20;;;;;;5055348;28;20045;-62
2022/12/22 04:59:19;;;;;;;0.85;0.50;;;19.70;57.20;;;;;;5055592;28;20047;-63
2022/12/22 05:01:44;;;;;;;0.80;0.60;;;19.70;57.30;;;;;;5048495;28;20033;-63
2022/12/22 05:04:10;;;;;;;0.98;0.55;;;19.70;57.30;;;;;;5046458;28;20203;-63
2022/12/22 05:06:35;;;;;;;1.30;0.57;;;19.70;57.30;;;;;;5054315;28;20076;-63
2022/12/22 05:09:01;;;;;;;1.40;0.50;;;19.70;57.30;;;;;;5055219;28;20037;-63
2022/12/22 05:11:27;;;;;;;1.23;0.60;;;19.70;57.20;;;;;;5054548;28;20049;-63
2022/12/22 05:13:52;;;;;;;1.30;0.60;;;19.70;57.30;;;;;;5055100;28;20092;-63
2022/12/22 05:16:18;;;;;;;0.98;0.60;;;19.70;57.20;;;;;;5054594;28;20045;-63
2022/12/22 05:18:44;;;;;;;2.55;0.63;;;19.80;57.20;;;;;;5049892;28;20044;-63
2022/12/22 05:21:17;;;;;;;0.95;0.50;;;19.80;57.20;;;;;;5054445;28;20056;-63
2022/12/22 05:23:43;;;;;;;0.50;0.40;;;19.70;57.10;;;;;;5054176;28;20544;-63
2022/12/22 05:26:09;;;;;;;0.98;0.50;;;19.80;57.20;;;;;;5054631;28;20120;-63
2022/12/22 05:28:34;;;;;;;1.02;0.63;;;19.80;57.10;;;;;;5054708;28;20037;-63
2022/12/22 05:31:04;;;;;;;1.23;0.50;;;19.80;57.20;;;;;;5055007;28;20499;-63
2022/12/22 05:33:30;;;;;;;1.42;0.60;;;19.80;57.20;;;;;;5054432;28;20110;-63
2022/12/22 05:35:55;;;;;;;1.02;0.60;;;19.80;57.20;;;;;;5054663;28;20053;-63
2022/12/22 05:38:21;;;;;;;1.33;0.60;;;19.80;57.20;;;;;;5054858;28;20036;-63
2022/12/22 05:40:47;;;;;;;1.30;0.50;;;19.80;57.20;;;;;;5054549;28;20044;-63
2022/12/22 05:43:13;;;;;;;1.45;0.63;;;19.80;57.10;;;;;;5053951;28;20045;-63
2022/12/22 05:45:38;;;;;;;1.05;0.70;;;19.90;57.20;;;;;;5054795;28;20044;-63
2022/12/22 05:48:04;;;;;;;1.20;0.57;;;19.80;57.10;;;;;;5052908;28;20045;-63
2022/12/22 05:50:31;;;;;;;0.60;0.45;;;19.80;57.10;;;;;;5052896;28;20041;-62
2022/12/22 05:52:57;;;;;;;0.85;0.50;;;19.90;57.20;;;;;;5054301;28;20041;-63
2022/12/22 05:55:22;;;;;;;1.65;0.65;;;19.90;57.20;;;;;;5054111;28;20052;-64
2022/12/22 05:57:48;;;;;;;1.67;0.50;;;19.90;57.20;;;;;;5054066;28;20041;-63
2022/12/22 06:00:15;;;;;;;0.80;0.50;;;19.90;57.10;;;;;;5053972;28;20128;-63
2022/12/22 06:02:41;;;;;;;1.02;0.50;;;20.00;57.80;;;;;;5054366;28;20041;-64
2022/12/22 06:05:07;;;;;;;0.98;0.47;;;20.00;57.00;;;;;;5052505;28;20045;-63
2022/12/22 06:07:32;;;;;;;1.00;0.50;;;20.00;57.00;;;;;;5052973;28;20033;-63
2022/12/22 06:09:58;;;;;;;0.95;0.50;;;20.00;56.90;;;;;;5053156;28;20048;-63
2022/12/22 06:12:23;;;;;;;0.80;0.50;;;20.10;56.90;;;;;;5052611;28;20041;-63
2022/12/22 06:14:49;;;;;;;0.77;0.50;;;20.10;56.80;;;;;;5053388;28;20468;-63
2022/12/22 06:17:14;;;;;;;2.38;0.60;;;20.10;56.80;;;;;;5053296;28;20048;-63
2022/12/22 06:19:40;;;;;;;1.50;0.40;;;20.20;56.80;;;;;;5054326;28;20044;-63
2022/12/22 06:22:06;;;;;;;1.73;0.40;;;20.20;56.70;;;;;;5053466;28;20114;-63
2022/12/22 06:24:31;;;;;;;0.80;0.60;;;20.30;56.80;;;;;;5053125;28;20036;-63
2022/12/22 06:26:57;;;;;;;5.25;0.70;;;20.20;56.70;;;;;;5053824;28;20146;-63
2022/12/22 06:29:22;;;;;;;1.65;0.60;;;20.30;56.80;;;;;;5053202;28;20056;-64
2022/12/22 06:31:48;;;;;;;1.15;0.50;;;20.30;56.90;;;;;;5053071;28;20086;-62
2022/12/22 06:34:16;;;;;;;4.35;1.00;;;20.30;56.90;;;;;;5053331;28;20068;-62
2022/12/22 06:36:45;;;;;;;0.82;0.57;;;20.30;57.00;;;;;;5053669;28;20055;-63
2022/12/22 06:39:12;;;;;;;1.45;0.70;;;20.30;57.10;;;;;;5052895;28;20044;-65
2022/12/22 06:44:22;;;;;;;3.13;0.50;;;20.40;57.10;;;;;;5053217;28;20041;-62
2022/12/22 06:46:47;;;;;;;3.40;0.70;;;20.40;57.00;;;;;;5052979;28;20045;-62
2022/12/22 06:49:13;;;;;;;1.10;0.60;;;20.40;57.00;;;;;;5052864;28;20404;-63
2022/12/22 06:51:38;;;;;;;1.95;0.50;;;20.40;57.10;;;;;;5053404;28;20479;-63
2022/12/22 06:54:04;;;;;;;4.05;0.57;;;20.40;57.10;;;;;;5047278;28;20049;-62
2022/12/22 06:56:29;;;;;;;1.08;0.60;;;20.40;57.20;;;;;;5052667;28;20561;-64
2022/12/22 06:58:55;;;;;;;1.83;0.50;;;20.40;57.20;;;;;;5051105;28;20458;-63
2022/12/22 07:01:21;;;;;;;1.42;0.50;;;20.50;57.20;;;;;;5052152;28;20102;-64
2022/12/22 07:03:46;;;;;;;1.25;0.40;;;20.50;57.20;;;;;;5052511;28;20547;-64
2022/12/22 07:06:12;;;;;;;3.22;0.70;;;20.50;57.30;;;;;;5052264;28;20427;-66
2022/12/22 07:08:37;;;;;;;0.77;0.50;;;20.50;57.40;;;;;;5051617;28;20045;-65
2022/12/22 07:11:03;;;;;;;1.08;0.60;;;20.50;57.40;;;;;;5052933;28;20064;-65
2022/12/22 07:13:31;;;;;;;1.48;0.70;;;20.50;57.40;;;;;;5051837;28;20057;-65
2022/12/22 07:15:57;;;;;;;1.60;0.70;;;20.50;57.40;;;;;;5053287;28;20049;-65
2022/12/22 07:18:23;;;;;;;1.10;0.50;;;20.50;57.40;;;;;;5052348;28;20037;-64
2022/12/22 07:20:48;;;;;;;2.60;0.70;;;20.60;57.40;;;;;;5052354;28;20048;-64
2022/12/22 07:23:14;;;;;;;1.10;0.60;;;20.50;57.40;;;;;;5052418;28;20033;-62
2022/12/22 07:25:39;;;;;;;1.65;0.60;;;20.50;57.30;;;;;;5051534;28;20634;-63
2022/12/22 07:28:05;;;;;;;1.42;0.60;;;20.60;57.50;;;;;;5052486;28;20451;-63
2022/12/22 07:30:31;;;;;;;0.90;0.52;;;20.60;57.50;;;;;;5052768;28;20056;-63
2022/12/22 07:32:57;;;;;;;0.85;0.60;;;20.60;57.50;;;;;;5052267;28;20049;-64
2022/12/22 07:35:22;;;;;;;1.08;0.40;;;20.60;57.50;;;;;;5051608;28;20037;-63
2022/12/22 07:37:48;;;;;;;4.25;0.88;;;20.60;57.40;;;;;;5052775;28;20398;-62
2022/12/22 07:40:14;;;;;;;3.72;0.88;;;20.60;57.40;;;;;;5051949;28;20131;-62
2022/12/22 07:42:45;;;;;;;3.38;0.68;;;20.60;57.50;;;;;;5051136;28;20404;-62
2022/12/22 07:45:15;;;;;;;4.50;0.80;;;20.60;57.50;;;;;;5052117;28;20546;-63
2022/12/22 07:47:40;;;;;;;2.78;0.60;;;20.60;57.50;;;;;;5052196;28;20369;-62
2022/12/22 07:50:26;;;;;;;4.53;1.23;;;20.60;57.50;;;;;;5051820;28;20052;-61
2022/12/22 07:52:52;;;;;;;1.55;0.70;;;20.60;57.50;;;;;;5052535;28;20036;-62
2022/12/22 07:55:18;;;;;;;2.67;0.60;;;20.60;57.60;;;;;;5052174;28;20053;-61
2022/12/22 07:57:44;;;;;;;2.13;0.77;;;20.60;57.60;;;;;;5051699;28;20115;-61
2022/12/22 08:00:10;;;;;;;2.53;0.80;;;20.60;57.70;;;;;;5045217;28;20132;-61
2022/12/22 08:02:36;;;;;;;1.67;0.82;;;20.60;57.70;;;;;;5051870;28;20044;-62
2022/12/22 08:05:01;;;;;;;2.38;0.82;;;20.60;57.70;;;;;;5044218;28;20041;-62
2022/12/22 08:07:27;;;;;;;4.28;0.95;;;20.60;57.90;;;;;;5057746;28;20048;-61
2022/12/22 08:09:52;;;;;;;1.67;0.82;;;20.60;57.90;;;;;;5050978;28;20040;-62
2022/12/22 08:12:18;;;;;;;4.65;1.20;;;20.60;57.90;;;;;;5055354;28;20061;-62
2022/12/22 08:14:44;;;;;;;2.65;1.30;;;20.60;57.90;;;;;;5049597;28;20041;-61
2022/12/22 08:17:11;;;;;;;1.70;0.90;;;20.70;58.00;;;;;;5050552;28;20041;-62
2022/12/22 08:19:37;;;;;;;2.63;1.05;;;20.70;58.00;;;;;;5051036;28;20453;-62
2022/12/22 08:22:02;;;;;;;2.53;1.00;;;20.60;58.00;;;;;;5051650;28;20540;-61
2022/12/22 08:24:28;;;;;;;2.38;1.10;;;20.60;58.00;;;;;;5049861;28;20862;-62
2022/12/22 08:26:56;;;;;;;1.92;1.10;;;20.60;58.00;;;;;;5051903;28;20116;-63
2022/12/22 08:29:25;;;;;;;3.22;1.40;;;20.60;58.00;;;;;;5051390;28;20491;-63
2022/12/22 08:31:50;;;;;;;3.50;1.45;;;20.60;58.10;;;;;;5053382;28;20546;-62
2022/12/22 08:34:16;;;;;;;2.97;1.10;;;20.60;58.00;;;;;;5054668;28;20053;-62
2022/12/22 08:36:45;;;;;;;2.47;1.00;;;20.60;58.00;;;;;;5055573;28;20094;-62
2022/12/22 08:39:11;;;;;;;3.30;1.20;;;20.60;58.00;;;;;;5047060;28;20045;-60
2022/12/22 08:41:48;;;;;;;2.35;1.13;;;20.60;58.10;;;;;;5054500;28;20037;-60
2022/12/22 08:44:14;;;;;;;3.70;1.20;;;20.60;58.00;;;;;;5055680;28;20041;-62
2022/12/22 08:46:40;;;;;;;2.10;1.20;;;20.60;57.90;;;;;;5061670;28;20131;-62
2022/12/22 08:49:05;;;;;;;3.20;1.50;;;20.60;58.00;;;;;;5054460;28;20080;-60
2022/12/22 08:51:31;;;;;;;2.83;1.40;;;20.60;58.20;;;;;;5054668;28;20064;-63
2022/12/22 08:53:56;;;;;;;3.65;1.20;;;20.60;58.20;;;;;;5063853;28;20040;-64
2022/12/22 08:56:22;;;;;;;3.20;1.70;;;20.60;58.20;;;;;;5074886;28;20476;-63
2022/12/22 08:58:47;;;;;;;2.70;1.40;;;20.60;58.10;;;;;;5074750;28;20403;-65
2022/12/22 09:01:17;;;;;;;8.05;1.70;;;20.60;58.10;;;;;;5075001;28;20468;-62
2022/12/22 09:03:46;;;;;;;4.95;1.80;;;20.60;58.10;;;;;;5075047;28;20041;-63
2022/12/22 09:06:11;;;;;;;3.20;1.60;;;20.60;58.00;;;;;;5074545;28;20067;-62
2022/12/22 09:08:37;;;;;;;5.22;1.83;;;20.60;58.00;;;;;;5074754;28;20492;-64
2022/12/22 09:11:03;;;;;;;2.90;1.73;;;20.60;58.00;;;;;;5074946;28;20404;-63
2022/12/22 09:13:28;;;;;;;3.75;1.95;;;20.50;57.90;;;;;;5073872;28;20083;-63
2022/12/22 09:15:54;;;;;;;3.85;1.85;;;20.50;57.90;;;;;;5075091;28;20076;-62
2022/12/22 09:18:19;;;;;;;2.92;1.50;;;20.50;57.90;;;;;;5069063;28;20055;-64
2022/12/22 09:20:45;;;;;;;3.53;1.83;;;20.50;57.90;;;;;;5074411;28;20049;-63
2022/12/22 09:23:10;;;;;;;4.82;1.90;;;20.50;57.90;;;;;;5074460;28;20118;-63
2022/12/22 09:25:36;;;;;;;3.60;1.45;;;20.50;57.90;;;;;;5074541;28;20043;-64
2022/12/22 09:28:03;;;;;;;3.63;1.67;;;20.50;57.80;;;;;;5074284;28;20397;-63
2022/12/22 09:30:28;;;;;;;4.35;2.05;;;20.50;57.90;;;;;;5072791;28;20044;-63
2022/12/22 09:32:54;;;;;;;3.75;2.00;;;20.50;57.90;;;;;;5056756;28;20037;-65
2022/12/22 09:35:19;;;;;;;6.15;2.40;;;20.50;57.90;;;;;;5053863;28;20048;-64
2022/12/22 09:37:45;;;;;;;5.05;2.10;;;20.50;57.80;;;;;;5044348;28;20045;-63
2022/12/22 09:40:11;;;;;;;4.72;2.38;;;20.50;57.70;;;;;;5035821;28;20041;-63
2022/12/22 09:42:36;;;;;;;7.82;2.30;;;20.40;57.60;;;;;;5036169;28;20052;-63
2022/12/22 09:45:02;;;;;;;7.30;2.53;;;20.40;57.90;;;;;;5035899;28;20175;-64
2022/12/22 09:47:38;;;;;;;5.60;2.35;;;20.50;58.10;;;;;;5042639;28;20156;-64
2022/12/22 09:50:05;;;;;;;6.90;2.80;;;20.50;58.00;;;;;;5037011;28;20038;-64
2022/12/22 09:52:34;;;;;;;6.15;3.20;;;20.40;57.90;;;;;;5019693;28;20067;-64
2022/12/22 09:55:03;;;;;;;9.45;2.90;;;20.40;57.70;;;;;;5057585;28;20466;-64
2022/12/22 09:57:30;;;;;;;6.43;3.15;;;20.40;57.70;;;;;;5034857;28;20107;-63
2022/12/22 10:00:17;;;;;;;8.82;3.10;;;20.40;57.60;;;;;;5051806;28;20488;-63
2022/12/22 10:02:58;;;;;;;7.22;2.97;;;20.40;57.90;;;;;;5051796;28;20041;-62
2022/12/22 10:05:29;;;;;;;7.53;3.10;;;20.40;57.90;;;;;;5035268;28;20045;-62
2022/12/22 10:07:59;;;;;;;5.70;3.08;;;20.40;58.00;;;;;;5052408;28;20081;-63
2022/12/22 10:10:27;;;;;;;9.65;3.10;;;20.40;58.10;;;;;;5052138;28;20033;-63
2022/12/22 10:13:00;;;;;;;7.00;3.43;;;20.40;58.00;;;;;;5053411;28;20060;-63
2022/12/22 10:15:25;;;;;;;6.07;2.75;;;20.40;58.00;;;;;;5053254;28;20055;-62
2022/12/22 10:18:08;;;;;;;8.10;3.20;;;20.40;58.00;;;;;;5053192;28;20033;-63
2022/12/22 10:20:33;;;;;;;8.68;3.00;;;20.40;58.10;;;;;;5043367;28;20153;-63
2022/12/22 10:23:00;;;;;;;5.25;2.78;;;20.40;58.10;;;;;;5051280;28;20547;-63
2022/12/22 10:25:34;;;;;;;7.45;2.80;;;20.40;58.10;;;;;;5050716;28;20037;-62
2022/12/22 10:28:03;;;;;;;9.43;3.20;;;20.40;58.10;;;;;;5038749;28;20404;-62
2022/12/22 10:30:34;;;;;;;6.70;3.40;;;20.40;58.10;;;;;;5051927;28;20071;-63
2022/12/22 10:33:09;;;;;;;6.15;2.60;;;20.40;58.20;;;;;;5018988;28;20043;-63
2022/12/22 10:35:43;;;;;;;7.93;2.83;;;20.40;58.20;;;;;;5052610;28;20480;-65
2022/12/22 10:38:17;;;;;;;7.90;3.33;;;20.40;58.20;;;;;;5051216;28;20049;-63
2022/12/22 10:40:43;;;;;;;6.10;2.78;;;20.40;58.20;;;;;;5035010;28;20116;-64
2022/12/22 10:43:09;;;;;;;5.72;2.60;;;20.40;58.20;;;;;;5052984;28;20041;-63
2022/12/22 10:45:34;;;;;;;6.90;2.80;;;20.40;58.20;;;;;;5051239;28;20107;-63
2022/12/22 10:48:00;;;;;;;6.22;2.58;;;20.40;58.10;;;;;;5053008;28;20523;-62
2022/12/22 10:50:25;;;;;;;5.72;2.67;;;20.40;58.10;;;;;;5035141;28;20053;-61
2022/12/22 10:52:52;;;;;;;6.40;2.90;;;20.40;58.00;;;;;;5051081;28;20087;-62
2022/12/22 10:55:24;;;;;;;3.85;2.40;;;20.40;58.00;;;;;;5052555;28;20041;-62
2022/12/22 10:57:50;;;;;;;6.85;2.60;;;20.40;58.60;;;;;;5035126;28;20068;-62
2022/12/22 11:00:28;;;;;;;6.78;2.88;;;20.40;58.00;;;;;;5017780;28;20087;-62
2022/12/22 11:02:54;;;;;;;;;;;20.40;58.00;;;;;;5052979;28;20409;-61
2022/12/22 11:05:20;;;;;;;7.35;2.85;;;20.40;58.40;;;;;;5051106;28;19923;-63
2022/12/22 11:07:46;;;;;;;7.97;3.00;;;20.40;58.20;;;;;;5057697;28;20045;-61
2022/12/22 11:10:49;;;;;;;6.65;2.60;;;20.40;58.30;;;;;;5072164;28;20037;-62
2022/12/22 11:13:42;;;;;;;7.30;2.65;;;20.40;58.50;;;;;;5041394;28;20143;-63
2022/12/22 11:16:43;;;;;;;8.57;2.35;;;20.40;58.60;;;;;;5048945;28;20416;-64
2022/12/22 11:19:32;;;;;;;6.47;2.60;;;20.40;58.60;;;;;;5049197;28;20045;-63
2022/12/22 11:22:25;;;;;;;6.80;2.65;;;20.40;58.60;;;;;;5051459;28;20056;-63
2022/12/22 11:25:02;;;;;;;4.65;2.50;;;20.40;58.70;;;;;;5049158;28;20112;-62
2022/12/22 11:28:00;;;;;;;8.55;2.53;;;20.40;58.80;;;;;;5048400;28;20552;-63
2022/12/22 11:30:46;;;;;;;4.72;2.50;;;20.40;58.80;;;;;;5048835;28;20091;-63
2022/12/22 11:33:17;;;;;;;6.07;2.28;;;20.40;58.80;;;;;;5051540;28;20045;-62
2022/12/22 11:35:48;;;;;;;5.03;2.42;;;20.40;58.50;;;;;;5050755;28;20055;-62
2022/12/22 11:38:46;;;;;;;4.50;2.40;;;20.40;58.30;;;;;;5045360;28;20195;-62
2022/12/22 11:41:15;;;;;;;;;;;20.40;57.90;;;;;;5058424;28;20049;-62
2022/12/22 11:44:08;;;;;;;5.90;2.38;;;20.40;57.50;;;;;;5071911;28;19932;-63
2022/12/22 11:46:58;;;;;;;6.60;2.30;;;20.30;57.50;;;;;;5071512;28;20036;-64
2022/12/22 11:50:02;;;;;;;6.78;2.45;;;20.30;57.20;;;;;;5070063;28;20123;-67
2022/12/22 11:52:43;;;;;;;6.63;2.47;;;20.30;56.80;;;;;;5070799;28;20040;-66
2022/12/22 11:55:33;;;;;;;6.78;2.92;;;20.30;56.90;;;;;;5053223;28;20080;-66
2022/12/22 11:58:22;;;;;;;6.82;2.40;;;20.30;56.60;;;;;;5070605;28;20124;-66
2022/12/22 12:00:53;;;;;;;5.55;2.70;;;20.30;56.50;;;;;;5042941;28;20507;-65
2022/12/22 12:03:41;;;;;;;5.30;2.28;;;20.30;56.60;;;;;;5053420;28;20064;-65
2022/12/22 12:06:06;;;;;;;4.27;1.80;;;20.30;56.50;;;;;;5054526;28;20049;-66
2022/12/22 12:08:57;;;;;;;4.82;2.40;;;20.30;56.50;;;;;;5061816;28;20326;-68
2022/12/22 12:11:32;;;;;;;5.13;2.22;;;20.30;56.20;;;;;;5059652;28;20044;-65
2022/12/22 12:14:14;;;;;;;5.85;2.20;;;20.30;56.20;;;;;;5057721;28;20401;-64
2022/12/22 12:16:47;;;;;;;6.22;2.03;;;20.20;56.20;;;;;;5037631;28;20511;-65
2022/12/22 12:19:21;;;;;;;5.45;2.40;;;20.20;56.20;;;;;;5047319;28;20454;-64
2022/12/22 12:21:49;;;;;;;6.07;2.67;;;20.20;56.00;;;;;;5055665;28;20550;-63
2022/12/22 12:24:23;;;;;;;6.70;2.80;;;20.20;55.90;;;;;;5039166;28;20037;-64
2022/12/22 12:27:06;;;;;;;6.25;2.92;;;20.20;55.90;;;;;;5053472;28;20453;-64
2022/12/22 12:29:43;;;;;;;5.72;3.20;;;20.20;55.60;;;;;;5053588;28;20041;-64
2022/12/22 12:32:15;;;;;;;7.03;2.92;;;20.20;55.70;;;;;;5053768;28;20056;-64
2022/12/22 12:34:43;;;;;;;8.15;3.22;;;20.10;55.70;;;;;;5053934;28;20219;-64
2022/12/22 12:37:26;;;;;;;8.37;2.87;;;20.20;55.70;;;;;;5053689;28;20510;-64
2022/12/22 12:40:17;;;;;;;6.90;2.58;;;20.20;55.60;;;;;;5052207;28;20321;-64
2022/12/22 12:42:43;;;;;;;6.70;2.70;;;20.20;55.60;;;;;;5054603;28;20048;-64
2022/12/22 12:45:31;;;;;;;6.28;3.00;;;20.20;55.70;;;;;;5053668;28;20052;-64
2022/12/22 12:48:19;;;;;;;7.47;2.60;;;20.20;55.60;;;;;;5055149;28;20128;-64
2022/12/22 12:50:45;;;;;;;;;;;20.20;55.70;;;;;;5055280;28;20295;-64
2022/12/22 12:53:10;;;;;;;5.78;2.60;;;20.30;55.80;;;;;;5070735;28;19920;-64
2022/12/22 12:55:39;;;;;;;6.20;2.38;;;20.20;55.70;;;;;;5053887;28;20539;-64
2022/12/22 12:58:09;;;;;;;5.85;2.78;;;20.30;55.80;;;;;;5054729;28;20102;-64
2022/12/22 13:00:34;;;;;;;4.53;2.40;;;20.30;55.70;;;;;;5052180;28;20051;-64
2022/12/22 13:03:10;;;;;;;5.07;2.42;;;20.30;55.80;;;;;;5053804;28;20045;-65
2022/12/22 13:05:49;;;;;;;5.30;2.67;;;20.30;55.70;;;;;;5053253;28;20048;-65
2022/12/22 13:08:24;;;;;;;3.70;2.15;;;20.30;55.80;;;;;;5054832;28;20049;-64
2022/12/22 13:10:52;;;;;;;5.90;2.70;;;20.40;55.80;;;;;;5055372;28;20072;-64
2022/12/22 13:13:24;;;;;;;5.22;2.50;;;20.40;56.50;;;;;;5053731;28;20154;-64
2022/12/22 13:16:16;;;;;;;4.72;2.30;;;20.40;55.80;;;;;;5053022;28;20095;-64
2022/12/22 13:18:42;;;;;;;4.95;2.15;;;20.40;55.80;;;;;;5053518;28;20055;-64
2022/12/22 13:21:21;;;;;;;4.80;2.53;;;20.50;55.80;;;;;;5054362;28;20148;-64
2022/12/22 13:24:09;;;;;;;5.05;2.28;;;20.40;55.80;;;;;;5054407;28;20048;-64
2022/12/22 13:26:36;;;;;;;5.35;2.03;;;20.40;55.80;;;;;;5052921;28;20374;-64
2022/12/22 13:29:08;;;;;;;4.90;1.95;;;20.50;55.90;;;;;;5054508;28;20040;-64
2022/12/22 13:31:42;;;;;;;3.78;2.20;;;20.50;55.90;;;;;;5053321;28;20504;-64
2022/12/22 13:34:39;;;;;;;4.10;1.90;;;20.50;55.90;;;;;;5053642;28;20500;-64
2022/12/22 13:37:22;;;;;;;3.85;2.13;;;20.50;55.90;;;;;;5054316;28;20063;-63
2022/12/22 13:40:11;;;;;;;4.13;2.17;;;20.50;55.80;;;;;;5053331;28;20116;-64
2022/12/22 13:43:04;;;;;;;3.53;1.90;;;20.60;55.80;;;;;;5054535;28;20627;-64
2022/12/22 13:45:45;;;;;;;4.53;2.10;;;20.60;55.80;;;;;;5052803;28;20111;-64
2022/12/22 13:48:20;;;;;;;4.43;2.10;;;20.60;56.10;;;;;;5036422;28;20072;-63
2022/12/22 13:50:51;;;;;;;4.70;2.05;;;20.60;56.10;;;;;;5052629;28;20047;-63
2022/12/22 13:53:49;;;;;;;5.88;2.20;;;20.60;56.00;;;;;;5053072;28;20531;-63
2022/12/22 13:56:17;;;;;;;6.78;1.98;;;20.60;56.00;;;;;;5051762;28;20114;-63
2022/12/22 13:58:46;;;;;;;6.60;2.07;;;20.70;56.10;;;;;;5035230;28;20040;-62
2022/12/22 14:01:16;;;;;;;5.10;2.13;;;20.70;56.10;;;;;;5035222;28;20170;-63
2022/12/22 14:04:01;;;;;;;5.93;1.60;;;20.70;56.20;;;;;;5051457;28;20029;-63
2022/12/22 14:06:32;;;;;;;4.60;1.77;;;20.70;56.30;;;;;;5051222;28;20045;-63
2022/12/22 14:09:11;;;;;;;4.60;1.80;;;20.70;57.00;;;;;;5053002;28;20465;-64
2022/12/22 14:11:36;;;;;;;3.42;1.50;;;20.70;56.40;;;;;;5050946;28;20080;-63
2022/12/22 14:14:09;;;;;;;3.83;1.98;;;20.70;56.40;;;;;;5053696;28;20084;-64
2022/12/22 14:16:34;;;;;;;5.32;1.70;;;20.70;56.40;;;;;;5049556;28;20071;-60
2022/12/22 14:19:00;;;;;;;2.75;1.52;;;20.70;56.40;;;;;;5042680;28;20399;-62
2022/12/22 14:21:25;;;;;;;4.38;1.58;;;20.70;56.50;;;;;;5057925;28;20037;-62
2022/12/22 14:23:51;;;;;;;4.57;1.60;;;20.70;56.60;;;;;;5037203;28;20048;-61
2022/12/22 14:26:18;;;;;;;4.60;1.83;;;20.80;56.70;;;;;;5056574;28;20051;-63
2022/12/22 14:28:49;;;;;;;5.17;1.70;;;20.70;56.70;;;;;;5060994;28;20041;-59
2022/12/22 14:31:15;;;;;;;3.83;1.58;;;20.70;56.70;;;;;;5058458;28;20388;-61
2022/12/22 14:33:52;;;;;;;9.13;2.30;;;20.80;56.80;;;;;;5059934;28;20092;-61
2022/12/22 14:36:22;;;;;;;3.72;1.50;;;20.80;56.90;;;;;;5059563;28;20053;-60
2022/12/22 14:38:52;;;;;;;3.67;1.73;;;20.80;56.90;;;;;;5055869;28;20084;-61
2022/12/22 14:44:04;;;;;;;3.95;1.50;;;20.80;57.00;;;;;;5056853;28;20057;-61
2022/12/22 14:46:30;;;;;;;5.85;1.80;;;20.90;57.10;;;;;;5060555;28;20048;-60
2022/12/22 14:48:57;;;;;;;4.82;1.70;;;20.90;57.20;;;;;;5059382;28;20472;-61
2022/12/22 14:51:22;;;;;;;4.80;1.38;;;20.90;57.00;;;;;;5058507;28;20458;-59
2022/12/22 14:53:58;;;;;;;6.00;1.58;;;20.90;56.90;;;;;;5059212;28;20594;-61
2022/12/22 14:56:24;;;;;;;5.60;1.77;;;20.90;56.80;;;;;;5047216;28;20057;-60
2022/12/22 14:58:50;;;;;;;6.95;1.45;;;21.00;56.80;;;;;;5057914;28;20499;-60
2022/12/22 15:01:19;;;;;;;5.10;1.30;;;21.00;56.70;;;;;;5057978;28;20049;-60
2022/12/22 15:03:58;;;;;;;5.10;1.60;;;20.90;56.70;;;;;;5054132;28;20132;-60
2022/12/22 15:06:38;;;;;;;5.10;1.35;;;20.90;56.70;;;;;;5058527;28;20064;-61
2022/12/22 15:09:03;;;;;;;4.25;1.70;;;21.00;56.70;;;;;;5053103;28;20044;-61
2022/12/22 15:11:29;;;;;;;4.03;1.48;;;20.90;56.70;;;;;;5057323;28;20040;-58
2022/12/22 15:13:54;;;;;;;8.75;2.03;;;20.90;56.80;;;;;;5059655;28;20053;-59
2022/12/22 15:16:20;;;;;;;8.52;2.38;;;20.90;56.90;;;;;;5058433;28;20045;-60
2022/12/22 15:18:47;;;;;;;7.35;1.90;;;21.00;57.00;;;;;;5055154;28;20920;-61
2022/12/22 15:21:13;;;;;;;8.77;3.30;;;21.00;57.00;;;;;;5057854;28;20567;-59
2022/12/22 15:23:39;;;;;;;6.70;2.53;;;21.10;57.00;;;;;;5056218;28;20755;-59
2022/12/22 15:26:05;;;;;;;7.45;2.22;;;21.10;57.00;;;;;;5057032;28;20472;-62
2022/12/22 15:28:31;;;;;;;7.53;2.28;;;21.10;57.10;;;;;;5059762;28;20036;-61
2022/12/22 15:30:57;;;;;;;6.05;2.22;;;21.10;57.00;;;;;;5058317;28;20044;-61
2022/12/22 15:33:23;;;;;;;6.18;2.20;;;21.20;57.00;;;;;;5054928;28;20103;-62
2022/12/22 15:35:49;;;;;;;10.10;2.88;;;21.20;56.80;;;;;;5057130;28;20048;-61
2022/12/22 15:38:16;;;;;;;3.95;2.05;;;21.20;56.70;;;;;;5049693;28;20032;-62
2022/12/22 15:40:42;;;;;;;5.07;1.90;;;21.20;56.70;;;;;;5059773;28;20044;-62
2022/12/22 15:43:08;;;;;;;8.07;2.38;;;21.20;56.60;;;;;;5057200;28;20106;-62
2022/12/22 15:45:35;;;;;;;6.28;2.92;;;21.20;56.70;;;;;;5061862;28;20040;-62
2022/12/22 15:48:01;;;;;;;9.50;2.20;;;21.20;56.70;;;;;;5057401;28;20056;-61
2022/12/22 15:50:30;;;;;;;6.55;2.20;;;21.20;56.70;;;;;;5058277;28;20033;-61
2022/12/22 15:52:56;;;;;;;5.50;2.78;;;21.20;56.60;;;;;;5060079;28;20048;-61
2022/12/22 15:55:21;;;;;;;14.13;2.67;;;21.20;56.70;;;;;;5054840;28;20048;-61
2022/12/22 15:57:51;;;;;;;9.75;2.95;;;21.30;56.80;;;;;;5057787;28;20047;-62
2022/12/22 16:00:17;;;;;;;8.45;2.42;;;21.30;56.60;;;;;;5057001;28;20183;-61
2022/12/22 16:02:43;;;;;;;13.68;2.17;;;21.30;56.70;;;;;;5060732;28;20048;-61
2022/12/22 16:05:10;;;;;;;9.60;2.70;;;21.30;56.70;;;;;;5056634;28;20412;-62
2022/12/22 16:07:35;;;;;;;6.72;2.33;;;21.30;56.80;;;;;;5056435;28;20507;-63
2022/12/22 16:10:01;;;;;;;8.77;3.08;;;21.30;56.80;;;;;;5055122;28;20040;-60
2022/12/22 16:12:27;;;;;;;8.70;2.10;;;21.30;56.90;;;;;;5058790;28;20759;-62
2022/12/22 16:14:54;;;;;;;10.00;2.38;;;21.30;56.80;;;;;;5040231;28;20029;-62
2022/12/22 16:17:24;;;;;;;8.80;2.20;;;21.30;56.70;;;;;;5059119;28;20040;-62
2022/12/22 16:19:50;;;;;;;16.65;2.90;;;21.30;56.80;;;;;;5056456;28;20481;-63
2022/12/22 16:22:17;;;;;;;12.65;2.67;;;21.30;56.80;;;;;;5057081;28;20040;-62
2022/12/22 16:24:43;;;;;;;7.20;3.33;;;21.30;56.80;;;;;;5057211;28;20064;-62
2022/12/22 16:27:10;;;;;;;9.60;2.70;;;21.30;56.80;;;;;;5059789;28;20036;-63
2022/12/22 16:29:36;;;;;;;11.82;2.55;;;21.30;56.80;;;;;;5055694;28;20480;-66
2022/12/22 16:32:21;;;;;;;14.27;3.45;;;21.30;56.80;;;;;;5039589;28;20053;-64
2022/12/22 16:34:47;;;;;;;9.90;2.67;;;21.30;56.60;;;;;;5055426;28;20523;-63
2022/12/22 16:37:13;;;;;;;18.25;3.05;;;21.30;57.30;;;;;;5060763;28;20041;-63
2022/12/22 16:39:38;;;;;;;9.30;2.10;;;21.30;56.50;;;;;;5059890;28;20112;-62